MOL Explorer — 3EKT8 — position and weather

sailwx.info

Track history (hours):
 
Tides and Currents Weather Stations Pressure Air Temp Water Temp Dewpoint Dewpoint Depression Visibility Wind Speed Wind Dir Waves Ship Positions

MOL Explorer

Last reported at 2015-Aug-26 20:00 UTC. Time now 2015-Aug-28 19:16 UTC.
Position N 53°24' W 173°36'.

Length 293 m; draft 11.9 m.

Type: Ship (hazmat cat A). MMSI: 372827000.

Wind from 050 at 20 knots

Waves 2.0 meters (7 feet)

Barometer 1014.0 mb
Air temperature 9.0 ° C
Visibility: greater than 5.4 NM
Water temperature 11.0 ° C

Date/timePositionNaut miles runAvg speedWind from/ knotsBaromVisibWave heightAir tempDewpointWater temp
2015-Aug-26 20:00N 53°24' W 173°36'   050 / 201014.0 5.4 2.0 9.0 11.0
2015-Aug-20 10:29N 38°10' W 126°25'1617.5
2015-Aug-20 09:34N 38°10' W 126°05'1717.2
2015-Aug-20 08:34N 38°10' W 125°43'1717.2
2015-Aug-20 07:34N 38°10' W 125°21'1717.3
2015-Aug-20 06:34N 38°10' W 124°59'1716.7
2015-Aug-20 05:34N 38°10' W 124°38'1716.7
2015-Aug-20 04:33N 38°10' W 124°17'1717.2
2015-Aug-20 03:34N 38°09' W 123°55'1717.3
2015-Aug-20 02:34N 38°10' W 123°33'1212.2
2015-Aug-20 01:33N 38°07' W 123°18'10 9.8
2015-Aug-20 00:33N 37°59' W 123°10'10 9.9
2015-Aug-19 23:33N 37°54' W 122°59'10 9.9
2015-Aug-19 22:33N 37°49' W 122°48'9 9.3
2015-Aug-19 21:33N 37°46' W 122°37'1212.1
2015-Aug-19 20:33N 37°48' W 122°21'2 1.5
2015-Aug-19 19:33N 37°49' W 122°20'0 0.0
2015-Aug-19 18:33N 37°49' W 122°20'0 0.0
2015-Aug-19 17:33N 37°49' W 122°20'0 0.0
2015-Aug-19 16:33N 37°49' W 122°20'0 0.0
2015-Aug-19 15:33N 37°49' W 122°20'0 0.0
2015-Aug-19 14:33N 37°49' W 122°20'0 0.0
2015-Aug-19 13:33N 37°49' W 122°20'0 0.0
2015-Aug-19 12:33N 37°49' W 122°20'0 0.0
2015-Aug-19 11:33N 37°49' W 122°20'0 0.0
2015-Aug-19 10:33N 37°49' W 122°20'0 0.0
2015-Aug-19 09:33N 37°49' W 122°20'0 0.0
2015-Aug-19 08:33N 37°49' W 122°20'0 0.0
2015-Aug-19 07:33N 37°49' W 122°20'0 0.0
2015-Aug-19 06:33N 37°49' W 122°20'0 0.0
2015-Aug-19 05:33N 37°49' W 122°20'0 0.0
2015-Aug-19 04:33N 37°49' W 122°20'0 0.0
2015-Aug-19 03:33N 37°49' W 122°20'0 0.0
2015-Aug-19 02:33N 37°49' W 122°20'0 0.0
2015-Aug-19 01:30N 37°49' W 122°20'0 0.0
2015-Aug-19 00:33N 37°49' W 122°20'0 0.0
2015-Aug-18 23:33N 37°49' W 122°20'0 0.0
2015-Aug-18 22:33N 37°49' W 122°20'0 0.0
2015-Aug-18 21:33N 37°49' W 122°20'0 0.0
2015-Aug-18 20:33N 37°49' W 122°20'0 0.0
2015-Aug-18 19:33N 37°49' W 122°20'0 0.0
2015-Aug-18 18:33N 37°49' W 122°20'0 0.0
2015-Aug-18 17:33N 37°49' W 122°20'0 0.0
2015-Aug-18 16:33N 37°49' W 122°20'0 0.0
2015-Aug-18 15:33N 37°49' W 122°20'0 0.0
2015-Aug-18 14:33N 37°49' W 122°20'0 0.0
2015-Aug-18 13:33N 37°49' W 122°20'0 0.0
2015-Aug-18 12:33N 37°49' W 122°20'0 0.0
2015-Aug-18 11:33N 37°49' W 122°20'0 0.0
2015-Aug-18 10:33N 37°49' W 122°20'0 0.0
2015-Aug-18 09:33N 37°49' W 122°20'0 0.0
2015-Aug-18 08:33N 37°49' W 122°20'0 0.0
2015-Aug-18 07:33N 37°49' W 122°20'0 0.0
2015-Aug-18 06:33N 37°49' W 122°20'0 0.0
2015-Aug-18 05:33N 37°49' W 122°20'0 0.0
2015-Aug-18 04:33N 37°49' W 122°20'0 0.0
2015-Aug-18 04:09N 37°49' W 122°20'0 0.0
2015-Aug-18 04:06N 37°49' W 122°20'0 0.0
2015-Aug-18 03:33N 37°49' W 122°20'0 0.0
2015-Aug-18 02:33N 37°49' W 122°20'0 0.0
2015-Aug-18 01:33N 37°49' W 122°20'0 0.0
2015-Aug-18 00:33N 37°49' W 122°20'0 0.0
2015-Aug-17 23:33N 37°49' W 122°20'0 0.0
2015-Aug-17 22:33N 37°49' W 122°20'0 0.0
2015-Aug-17 21:33N 37°49' W 122°20'0 0.0
2015-Aug-17 20:33N 37°49' W 122°20'0 0.0
2015-Aug-17 19:33N 37°49' W 122°20'0 0.0
2015-Aug-17 18:33N 37°49' W 122°20'0 0.0
2015-Aug-17 17:33N 37°49' W 122°20'0 0.0
2015-Aug-17 16:33N 37°49' W 122°20'0 0.0
2015-Aug-17 15:33N 37°49' W 122°20'0 0.0
2015-Aug-17 14:33N 37°49' W 122°20'3 2.7
2015-Aug-17 13:33N 37°48' W 122°23'7 6.7
2015-Aug-17 12:33N 37°48' W 122°31'8 8.4
2015-Aug-17 11:33N 37°43' W 122°40'7 6.6
2015-Aug-17 10:33N 37°36' W 122°40'10 9.7
2015-Aug-17 09:33N 37°27' W 122°39'10 9.8
2015-Aug-17 08:33N 37°17' W 122°40'1312.9
2015-Aug-17 07:33N 37°04' W 122°37'1817.6
2015-Aug-17 06:33N 36°47' W 122°33'1717.1
2015-Aug-17 05:34N 36°30' W 122°29'1717.0
2015-Aug-17 04:33N 36°13' W 122°24'3417.2
2015-Aug-17 02:33N 35°42' W 122°06'2317.1
2015-Aug-17 01:12N 35°21' W 121°54'1217.8
2015-Aug-17 00:34N 35°11' W 121°48'1717.4
2015-Aug-16 23:33N 34°55' W 121°39'1817.5
2015-Aug-16 22:33N 34°39' W 121°29'1717.5
2015-Aug-16 21:34N 34°24' W 121°20'1717.3
2015-Aug-16 20:33N 34°09' W 121°08'  
Track history (hours):
 
Tides and Currents Weather Stations Pressure Air Temp Water Temp Dewpoint Dewpoint Depression Visibility Wind Speed Wind Dir Waves Ship Positions

MOL Explorer

Last reported at 2015-Aug-26 20:00 UTC. Time now 2015-Aug-28 19:16 UTC.
Position N 53°24' W 173°36'.

Length 293 m; draft 11.9 m.

Type: Ship (hazmat cat A). MMSI: 372827000.

Wind from 050 at 20 knots

Waves 2.0 meters (7 feet)

Barometer 1014.0 mb
Air temperature 9.0 ° C
Visibility: greater than 5.4 NM
Water temperature 11.0 ° C

Date/timePositionNaut miles runAvg speedWind from/ knotsBaromVisibWave heightAir tempDewpointWater temp
2015-Aug-26 20:00N 53°24' W 173°36'   050 / 201014.0 5.4 2.0 9.0 11.0
2015-Aug-20 10:29N 38°10' W 126°25'1617.5
2015-Aug-20 09:34N 38°10' W 126°05'1717.2
2015-Aug-20 08:34N 38°10' W 125°43'1717.2
2015-Aug-20 07:34N 38°10' W 125°21'1717.3
2015-Aug-20 06:34N 38°10' W 124°59'1716.7
2015-Aug-20 05:34N 38°10' W 124°38'1716.7
2015-Aug-20 04:33N 38°10' W 124°17'1717.2
2015-Aug-20 03:34N 38°09' W 123°55'1717.3
2015-Aug-20 02:34N 38°10' W 123°33'1212.2
2015-Aug-20 01:33N 38°07' W 123°18'10 9.8
2015-Aug-20 00:33N 37°59' W 123°10'10 9.9
2015-Aug-19 23:33N 37°54' W 122°59'10 9.9
2015-Aug-19 22:33N 37°49' W 122°48'9 9.3
2015-Aug-19 21:33N 37°46' W 122°37'1212.1
2015-Aug-19 20:33N 37°48' W 122°21'2 1.5
2015-Aug-19 19:33N 37°49' W 122°20'0 0.0
2015-Aug-19 18:33N 37°49' W 122°20'0 0.0
2015-Aug-19 17:33N 37°49' W 122°20'0 0.0
2015-Aug-19 16:33N 37°49' W 122°20'0 0.0
2015-Aug-19 15:33N 37°49' W 122°20'0 0.0
2015-Aug-19 14:33N 37°49' W 122°20'0 0.0
2015-Aug-19 13:33N 37°49' W 122°20'0 0.0
2015-Aug-19 12:33N 37°49' W 122°20'0 0.0
2015-Aug-19 11:33N 37°49' W 122°20'0 0.0
2015-Aug-19 10:33N 37°49' W 122°20'0 0.0
2015-Aug-19 09:33N 37°49' W 122°20'0 0.0
2015-Aug-19 08:33N 37°49' W 122°20'0 0.0
2015-Aug-19 07:33N 37°49' W 122°20'0 0.0
2015-Aug-19 06:33N 37°49' W 122°20'0 0.0
2015-Aug-19 05:33N 37°49' W 122°20'0 0.0
2015-Aug-19 04:33N 37°49' W 122°20'0 0.0
2015-Aug-19 03:33N 37°49' W 122°20'0 0.0
2015-Aug-19 02:33N 37°49' W 122°20'0 0.0
2015-Aug-19 01:30N 37°49' W 122°20'0 0.0
2015-Aug-19 00:33N 37°49' W 122°20'0 0.0
2015-Aug-18 23:33N 37°49' W 122°20'0 0.0
2015-Aug-18 22:33N 37°49' W 122°20'0 0.0
2015-Aug-18 21:33N 37°49' W 122°20'0 0.0
2015-Aug-18 20:33N 37°49' W 122°20'0 0.0
2015-Aug-18 19:33N 37°49' W 122°20'0 0.0
2015-Aug-18 18:33N 37°49' W 122°20'0 0.0
2015-Aug-18 17:33N 37°49' W 122°20'0 0.0
2015-Aug-18 16:33N 37°49' W 122°20'0 0.0
2015-Aug-18 15:33N 37°49' W 122°20'0 0.0
2015-Aug-18 14:33N 37°49' W 122°20'0 0.0
2015-Aug-18 13:33N 37°49' W 122°20'0 0.0
2015-Aug-18 12:33N 37°49' W 122°20'0 0.0
2015-Aug-18 11:33N 37°49' W 122°20'0 0.0
2015-Aug-18 10:33N 37°49' W 122°20'0 0.0
2015-Aug-18 09:33N 37°49' W 122°20'0 0.0
2015-Aug-18 08:33N 37°49' W 122°20'0 0.0
2015-Aug-18 07:33N 37°49' W 122°20'0 0.0
2015-Aug-18 06:33N 37°49' W 122°20'0 0.0
2015-Aug-18 05:33N 37°49' W 122°20'0 0.0
2015-Aug-18 04:33N 37°49' W 122°20'0 0.0
2015-Aug-18 04:09N 37°49' W 122°20'0 0.0
2015-Aug-18 04:06N 37°49' W 122°20'0 0.0
2015-Aug-18 03:33N 37°49' W 122°20'0 0.0
2015-Aug-18 02:33N 37°49' W 122°20'0 0.0
2015-Aug-18 01:33N 37°49' W 122°20'0 0.0
2015-Aug-18 00:33N 37°49' W 122°20'0 0.0
2015-Aug-17 23:33N 37°49' W 122°20'0 0.0
2015-Aug-17 22:33N 37°49' W 122°20'0 0.0
2015-Aug-17 21:33N 37°49' W 122°20'0 0.0
2015-Aug-17 20:33N 37°49' W 122°20'0 0.0
2015-Aug-17 19:33N 37°49' W 122°20'0 0.0
2015-Aug-17 18:33N 37°49' W 122°20'0 0.0
2015-Aug-17 17:33N 37°49' W 122°20'0 0.0
2015-Aug-17 16:33N 37°49' W 122°20'0 0.0
2015-Aug-17 15:33N 37°49' W 122°20'0 0.0
2015-Aug-17 14:33N 37°49' W 122°20'3 2.7
2015-Aug-17 13:33N 37°48' W 122°23'7 6.7
2015-Aug-17 12:33N 37°48' W 122°31'8 8.4
2015-Aug-17 11:33N 37°43' W 122°40'7 6.6
2015-Aug-17 10:33N 37°36' W 122°40'10 9.7
2015-Aug-17 09:33N 37°27' W 122°39'10 9.8
2015-Aug-17 08:33N 37°17' W 122°40'1312.9
2015-Aug-17 07:33N 37°04' W 122°37'1817.6
2015-Aug-17 06:33N 36°47' W 122°33'1717.1
2015-Aug-17 05:34N 36°30' W 122°29'1717.0
2015-Aug-17 04:33N 36°13' W 122°24'3417.2
2015-Aug-17 02:33N 35°42' W 122°06'2317.1
2015-Aug-17 01:12N 35°21' W 121°54'1217.8
2015-Aug-17 00:34N 35°11' W 121°48'1717.4
2015-Aug-16 23:33N 34°55' W 121°39'1817.5
2015-Aug-16 22:33N 34°39' W 121°29'1717.5
2015-Aug-16 21:34N 34°24' W 121°20'1717.3
2015-Aug-16 20:33N 34°09' W 121°08'  

Dump ship's entire track history